sensor_id;sensor_type;location;lat;lon;timestamp;P1;durP1;ratioP1;P2;durP2;ratioP2
72761;SDS011;60886;55.034;73.150;2023-03-23T00:01:04;6.33;;;1.30;;
72761;SDS011;60886;55.034;73.150;2023-03-23T00:04:07;7.40;;;1.50;;
72761;SDS011;60886;55.034;73.150;2023-03-23T00:07:08;6.22;;;1.48;;
72761;SDS011;60886;55.034;73.150;2023-03-23T00:10:13;6.95;;;1.60;;
72761;SDS011;60886;55.034;73.150;2023-03-23T00:13:14;9.68;;;1.70;;
72761;SDS011;60886;55.034;73.150;2023-03-23T00:16:30;7.05;;;1.52;;
72761;SDS011;60886;55.034;73.150;2023-03-23T00:19:42;8.07;;;1.60;;
72761;SDS011;60886;55.034;73.150;2023-03-23T00:22:57;5.40;;;1.30;;
72761;SDS011;60886;55.034;73.150;2023-03-23T00:26:00;6.65;;;1.60;;
72761;SDS011;60886;55.034;73.150;2023-03-23T00:29:17;6.20;;;1.40;;
72761;SDS011;60886;55.034;73.150;2023-03-23T00:32:25;6.45;;;1.67;;
72761;SDS011;60886;55.034;73.150;2023-03-23T00:35:38;8.00;;;1.70;;
72761;SDS011;60886;55.034;73.150;2023-03-23T00:38:41;8.20;;;1.45;;
72761;SDS011;60886;55.034;73.150;2023-03-23T00:41:43;6.37;;;1.30;;
72761;SDS011;60886;55.034;73.150;2023-03-23T00:44:45;5.97;;;1.50;;
72761;SDS011;60886;55.034;73.150;2023-03-23T00:47:47;7.38;;;1.38;;
72761;SDS011;60886;55.034;73.150;2023-03-23T00:51:10;5.20;;;1.40;;
72761;SDS011;60886;55.034;73.150;2023-03-23T00:54:19;5.70;;;1.23;;
72761;SDS011;60886;55.034;73.150;2023-03-23T00:57:34;6.80;;;1.43;;
72761;SDS011;60886;55.034;73.150;2023-03-23T01:00:36;5.40;;;1.20;;
72761;SDS011;60886;55.034;73.150;2023-03-23T01:03:37;4.20;;;1.02;;
72761;SDS011;60886;55.034;73.150;2023-03-23T01:06:40;5.65;;;1.40;;
72761;SDS011;60886;55.034;73.150;2023-03-23T01:09:43;6.43;;;1.13;;
72761;SDS011;60886;55.034;73.150;2023-03-23T01:12:46;5.30;;;1.20;;
72761;SDS011;60886;55.034;73.150;2023-03-23T01:15:54;6.83;;;1.10;;
72761;SDS011;60886;55.034;73.150;2023-03-23T01:19:05;5.75;;;1.42;;
72761;SDS011;60886;55.034;73.150;2023-03-23T01:22:07;7.00;;;1.50;;
72761;SDS011;60886;55.034;73.150;2023-03-23T01:25:19;7.20;;;1.37;;
72761;SDS011;60886;55.034;73.150;2023-03-23T01:28:20;5.75;;;1.42;;
72761;SDS011;60886;55.034;73.150;2023-03-23T01:31:22;6.88;;;1.38;;
72761;SDS011;60886;55.034;73.150;2023-03-23T01:34:25;6.70;;;1.37;;
72761;SDS011;60886;55.034;73.150;2023-03-23T01:37:37;5.43;;;1.20;;
72761;SDS011;60886;55.034;73.150;2023-03-23T01:40:44;6.70;;;1.40;;
72761;SDS011;60886;55.034;73.150;2023-03-23T01:47:16;5.85;;;1.30;;
72761;SDS011;60886;55.034;73.150;2023-03-23T01:50:24;5.70;;;1.30;;
72761;SDS011;60886;55.034;73.150;2023-03-23T01:53:35;7.65;;;1.42;;
72761;SDS011;60886;55.034;73.150;2023-03-23T01:56:41;7.07;;;1.58;;
72761;SDS011;60886;55.034;73.150;2023-03-23T01:59:48;8.13;;;1.70;;
72761;SDS011;60886;55.034;73.150;2023-03-23T02:02:54;10.13;;;1.65;;
72761;SDS011;60886;55.034;73.150;2023-03-23T02:05:57;7.60;;;1.50;;
72761;SDS011;60886;55.034;73.150;2023-03-23T02:09:41;6.72;;;1.40;;
72761;SDS011;60886;55.034;73.150;2023-03-23T02:12:52;6.63;;;1.37;;
72761;SDS011;60886;55.034;73.150;2023-03-23T02:19:18;9.07;;;1.85;;
72761;SDS011;60886;55.034;73.150;2023-03-23T02:39:40;6.93;;;1.50;;
72761;SDS011;60886;55.034;73.150;2023-03-23T02:42:50;6.63;;;1.27;;
72761;SDS011;60886;55.034;73.150;2023-03-23T02:45:54;6.37;;;1.30;;
72761;SDS011;60886;55.034;73.150;2023-03-23T02:49:07;6.00;;;1.50;;
72761;SDS011;60886;55.034;73.150;2023-03-23T02:52:26;6.65;;;1.40;;
72761;SDS011;60886;55.034;73.150;2023-03-23T02:55:31;6.33;;;1.50;;
72761;SDS011;60886;55.034;73.150;2023-03-23T02:58:47;6.75;;;1.50;;
72761;SDS011;60886;55.034;73.150;2023-03-23T03:01:54;6.00;;;1.20;;
72761;SDS011;60886;55.034;73.150;2023-03-23T03:05:03;6.65;;;1.55;;
72761;SDS011;60886;55.034;73.150;2023-03-23T03:11:47;9.80;;;1.50;;
72761;SDS011;60886;55.034;73.150;2023-03-23T03:18:35;7.75;;;1.45;;
72761;SDS011;60886;55.034;73.150;2023-03-23T03:21:52;7.30;;;1.50;;
72761;SDS011;60886;55.034;73.150;2023-03-23T03:25:13;6.40;;;1.38;;
72761;SDS011;60886;55.034;73.150;2023-03-23T03:28:28;5.05;;;1.20;;
72761;SDS011;60886;55.034;73.150;2023-03-23T03:31:32;7.75;;;1.58;;
72761;SDS011;60886;55.034;73.150;2023-03-23T03:34:37;6.67;;;1.50;;
72761;SDS011;60886;55.034;73.150;2023-03-23T03:37:40;6.00;;;1.52;;
72761;SDS011;60886;55.034;73.150;2023-03-23T03:40:42;8.63;;;2.90;;
72761;SDS011;60886;55.034;73.150;2023-03-23T03:43:44;6.72;;;1.40;;
72761;SDS011;60886;55.034;73.150;2023-03-23T03:46:55;7.57;;;1.48;;
72761;SDS011;60886;55.034;73.150;2023-03-23T03:50:12;5.35;;;1.30;;
72761;SDS011;60886;55.034;73.150;2023-03-23T03:53:14;6.45;;;1.58;;
72761;SDS011;60886;55.034;73.150;2023-03-23T03:56:17;6.03;;;1.40;;
72761;SDS011;60886;55.034;73.150;2023-03-23T03:59:26;6.57;;;1.60;;
72761;SDS011;60886;55.034;73.150;2023-03-23T04:03:05;9.50;;;1.60;;
72761;SDS011;60886;55.034;73.150;2023-03-23T04:06:30;6.75;;;1.70;;
72761;SDS011;60886;55.034;73.150;2023-03-23T04:09:40;7.50;;;1.40;;
72761;SDS011;60886;55.034;73.150;2023-03-23T04:12:44;8.87;;;1.70;;
72761;SDS011;60886;55.034;73.150;2023-03-23T04:16:21;8.20;;;1.70;;
72761;SDS011;60886;55.034;73.150;2023-03-23T04:19:23;6.88;;;1.60;;
72761;SDS011;60886;55.034;73.150;2023-03-23T04:22:30;8.00;;;1.70;;
72761;SDS011;60886;55.034;73.150;2023-03-23T04:25:33;6.57;;;1.80;;
72761;SDS011;60886;55.034;73.150;2023-03-23T04:28:37;7.30;;;1.80;;
72761;SDS011;60886;55.034;73.150;2023-03-23T04:32:15;5.68;;;1.40;;
72761;SDS011;60886;55.034;73.150;2023-03-23T04:35:23;8.68;;;1.95;;
72761;SDS011;60886;55.034;73.150;2023-03-23T04:38:39;8.10;;;2.05;;
72761;SDS011;60886;55.034;73.150;2023-03-23T04:41:59;8.73;;;2.00;;
72761;SDS011;60886;55.034;73.150;2023-03-23T04:45:20;8.02;;;2.00;;
72761;SDS011;60886;55.034;73.150;2023-03-23T04:48:25;9.63;;;2.10;;
72761;SDS011;60886;55.034;73.150;2023-03-23T04:51:58;7.53;;;2.10;;
72761;SDS011;60886;55.034;73.150;2023-03-23T04:55:15;9.28;;;2.25;;
72761;SDS011;60886;55.034;73.150;2023-03-23T04:58:26;7.05;;;1.90;;
72761;SDS011;60886;55.034;73.150;2023-03-23T05:01:47;7.63;;;2.30;;
72761;SDS011;60886;55.034;73.150;2023-03-23T05:04:52;8.25;;;2.22;;
72761;SDS011;60886;55.034;73.150;2023-03-23T05:07:57;7.53;;;2.03;;
72761;SDS011;60886;55.034;73.150;2023-03-23T05:11:01;7.70;;;2.23;;
72761;SDS011;60886;55.034;73.150;2023-03-23T05:14:08;8.15;;;2.00;;
72761;SDS011;60886;55.034;73.150;2023-03-23T05:17:19;7.07;;;2.45;;
72761;SDS011;60886;55.034;73.150;2023-03-23T05:20:28;7.83;;;2.50;;
72761;SDS011;60886;55.034;73.150;2023-03-23T05:23:48;8.43;;;2.60;;
72761;SDS011;60886;55.034;73.150;2023-03-23T05:26:57;9.07;;;2.50;;
72761;SDS011;60886;55.034;73.150;2023-03-23T05:30:12;7.20;;;2.34;;
72761;SDS011;60886;55.034;73.150;2023-03-23T05:33:27;8.98;;;2.35;;
72761;SDS011;60886;55.034;73.150;2023-03-23T05:36:29;8.10;;;2.70;;
72761;SDS011;60886;55.034;73.150;2023-03-23T05:39:44;8.93;;;2.47;;
72761;SDS011;60886;55.034;73.150;2023-03-23T05:42:52;8.25;;;2.65;;
72761;SDS011;60886;55.034;73.150;2023-03-23T05:46:06;9.80;;;2.80;;
72761;SDS011;60886;55.034;73.150;2023-03-23T05:49:16;7.75;;;2.60;;
72761;SDS011;60886;55.034;73.150;2023-03-23T05:52:18;7.67;;;2.37;;
72761;SDS011;60886;55.034;73.150;2023-03-23T05:55:32;7.00;;;2.40;;
72761;SDS011;60886;55.034;73.150;2023-03-23T05:59:04;9.43;;;3.00;;
72761;SDS011;60886;55.034;73.150;2023-03-23T06:02:11;9.10;;;3.20;;
72761;SDS011;60886;55.034;73.150;2023-03-23T06:05:14;7.77;;;2.87;;
72761;SDS011;60886;55.034;73.150;2023-03-23T06:08:30;9.68;;;3.38;;
72761;SDS011;60886;55.034;73.150;2023-03-23T06:11:32;8.10;;;3.38;;
72761;SDS011;60886;55.034;73.150;2023-03-23T06:14:53;9.52;;;3.40;;
72761;SDS011;60886;55.034;73.150;2023-03-23T06:18:02;19.43;;;3.93;;
72761;SDS011;60886;55.034;73.150;2023-03-23T06:21:37;62.90;;;8.80;;
72761;SDS011;60886;55.034;73.150;2023-03-23T06:24:57;25.58;;;5.18;;
72761;SDS011;60886;55.034;73.150;2023-03-23T06:28:06;20.83;;;3.88;;
72761;SDS011;60886;55.034;73.150;2023-03-23T06:31:13;8.10;;;3.00;;
72761;SDS011;60886;55.034;73.150;2023-03-23T06:34:21;8.45;;;3.30;;
72761;SDS011;60886;55.034;73.150;2023-03-23T06:37:38;9.43;;;3.70;;
72761;SDS011;60886;55.034;73.150;2023-03-23T06:41:00;9.40;;;3.35;;
72761;SDS011;60886;55.034;73.150;2023-03-23T06:44:14;9.40;;;3.40;;
72761;SDS011;60886;55.034;73.150;2023-03-23T06:47:16;7.93;;;3.13;;
72761;SDS011;60886;55.034;73.150;2023-03-23T06:50:22;8.43;;;3.35;;
72761;SDS011;60886;55.034;73.150;2023-03-23T06:53:25;9.88;;;3.50;;
72761;SDS011;60886;55.034;73.150;2023-03-23T06:56:28;10.02;;;3.72;;
72761;SDS011;60886;55.034;73.150;2023-03-23T06:59:31;9.80;;;3.60;;
72761;SDS011;60886;55.034;73.150;2023-03-23T07:02:33;8.93;;;3.65;;
72761;SDS011;60886;55.034;73.150;2023-03-23T07:05:35;10.10;;;3.57;;
72761;SDS011;60886;55.034;73.150;2023-03-23T07:08:38;9.93;;;3.60;;
72761;SDS011;60886;55.034;73.150;2023-03-23T07:11:44;8.23;;;3.28;;
72761;SDS011;60886;55.034;73.150;2023-03-23T07:14:58;9.43;;;3.53;;
72761;SDS011;60886;55.034;73.150;2023-03-23T07:18:00;12.13;;;3.20;;
72761;SDS011;60886;55.034;73.150;2023-03-23T07:21:07;7.57;;;2.87;;
72761;SDS011;60886;55.034;73.150;2023-03-23T07:24:13;9.45;;;3.53;;
72761;SDS011;60886;55.034;73.150;2023-03-23T07:27:37;8.90;;;3.15;;
72761;SDS011;60886;55.034;73.150;2023-03-23T07:30:40;6.70;;;2.40;;
72761;SDS011;60886;55.034;73.150;2023-03-23T07:33:44;7.18;;;2.45;;
72761;SDS011;60886;55.034;73.150;2023-03-23T07:36:50;7.33;;;2.70;;
72761;SDS011;60886;55.034;73.150;2023-03-23T07:39:52;8.43;;;2.30;;
72761;SDS011;60886;55.034;73.150;2023-03-23T07:42:55;5.87;;;2.00;;
72761;SDS011;60886;55.034;73.150;2023-03-23T07:46:27;6.47;;;2.30;;
72761;SDS011;60886;55.034;73.150;2023-03-23T07:49:43;5.95;;;2.00;;
72761;SDS011;60886;55.034;73.150;2023-03-23T07:52:56;6.00;;;1.80;;
72761;SDS011;60886;55.034;73.150;2023-03-23T07:56:00;6.10;;;1.70;;
72761;SDS011;60886;55.034;73.150;2023-03-23T07:59:22;6.67;;;1.90;;
72761;SDS011;60886;55.034;73.150;2023-03-23T08:02:25;5.07;;;1.58;;
72761;SDS011;60886;55.034;73.150;2023-03-23T08:05:50;6.30;;;1.60;;
72761;SDS011;60886;55.034;73.150;2023-03-23T08:09:21;5.32;;;1.40;;
72761;SDS011;60886;55.034;73.150;2023-03-23T08:12:46;5.70;;;1.50;;
72761;SDS011;60886;55.034;73.150;2023-03-23T08:16:06;6.30;;;1.40;;
72761;SDS011;60886;55.034;73.150;2023-03-23T08:19:48;5.45;;;1.50;;
72761;SDS011;60886;55.034;73.150;2023-03-23T08:22:53;4.93;;;1.33;;
72761;SDS011;60886;55.034;73.150;2023-03-23T08:26:14;6.07;;;1.40;;
72761;SDS011;60886;55.034;73.150;2023-03-23T08:29:46;4.95;;;1.30;;
72761;SDS011;60886;55.034;73.150;2023-03-23T08:33:07;4.87;;;1.20;;
72761;SDS011;60886;55.034;73.150;2023-03-23T08:36:29;4.78;;;1.10;;
72761;SDS011;60886;55.034;73.150;2023-03-23T08:40:00;4.53;;;1.02;;
72761;SDS011;60886;55.034;73.150;2023-03-23T08:43:21;3.87;;;1.00;;
72761;SDS011;60886;55.034;73.150;2023-03-23T08:46:25;5.15;;;1.10;;
72761;SDS011;60886;55.034;73.150;2023-03-23T08:49:42;5.72;;;1.33;;
72761;SDS011;60886;55.034;73.150;2023-03-23T08:53:04;3.30;;;0.90;;
72761;SDS011;60886;55.034;73.150;2023-03-23T08:56:38;4.97;;;1.00;;
72761;SDS011;60886;55.034;73.150;2023-03-23T09:00:13;4.25;;;1.06;;
72761;SDS011;60886;55.034;73.150;2023-03-23T09:03:37;4.20;;;1.10;;
72761;SDS011;60886;55.034;73.150;2023-03-23T09:06:54;5.68;;;1.00;;
72761;SDS011;60886;55.034;73.150;2023-03-23T09:09:57;5.03;;;0.90;;
72761;SDS011;60886;55.034;73.150;2023-03-23T09:12:58;2.60;;;0.70;;
72761;SDS011;60886;55.034;73.150;2023-03-23T09:16:05;2.43;;;0.70;;
72761;SDS011;60886;55.034;73.150;2023-03-23T09:19:07;2.90;;;0.70;;
72761;SDS011;60886;55.034;73.150;2023-03-23T09:22:09;2.00;;;0.60;;
72761;SDS011;60886;55.034;73.150;2023-03-23T09:25:13;3.33;;;0.68;;
72761;SDS011;60886;55.034;73.150;2023-03-23T09:28:16;3.40;;;0.77;;
72761;SDS011;60886;55.034;73.150;2023-03-23T09:31:22;2.80;;;0.60;;
72761;SDS011;60886;55.034;73.150;2023-03-23T09:34:27;2.60;;;0.60;;
72761;SDS011;60886;55.034;73.150;2023-03-23T09:37:35;2.40;;;0.70;;
72761;SDS011;60886;55.034;73.150;2023-03-23T09:40:45;2.97;;;0.60;;
72761;SDS011;60886;55.034;73.150;2023-03-23T09:50:37;2.88;;;0.70;;
72761;SDS011;60886;55.034;73.150;2023-03-23T09:53:45;1.85;;;0.50;;
72761;SDS011;60886;55.034;73.150;2023-03-23T09:56:50;2.10;;;0.60;;
72761;SDS011;60886;55.034;73.150;2023-03-23T09:59:56;1.90;;;0.43;;
72761;SDS011;60886;55.034;73.150;2023-03-23T10:03:15;2.63;;;0.52;;
72761;SDS011;60886;55.034;73.150;2023-03-23T10:06:18;2.40;;;0.53;;
72761;SDS011;60886;55.034;73.150;2023-03-23T10:09:20;2.15;;;0.40;;
72761;SDS011;60886;55.034;73.150;2023-03-23T10:12:29;2.25;;;0.50;;
72761;SDS011;60886;55.034;73.150;2023-03-23T10:15:54;2.40;;;0.60;;
72761;SDS011;60886;55.034;73.150;2023-03-23T10:23:32;3.33;;;0.60;;
72761;SDS011;60886;55.034;73.150;2023-03-23T10:29:36;2.35;;;0.60;;
72761;SDS011;60886;55.034;73.150;2023-03-23T10:33:01;2.60;;;0.60;;
72761;SDS011;60886;55.034;73.150;2023-03-23T10:39:53;4.68;;;0.70;;
72761;SDS011;60886;55.034;73.150;2023-03-23T10:43:04;3.03;;;0.60;;
72761;SDS011;60886;55.034;73.150;2023-03-23T10:46:14;3.00;;;0.70;;
72761;SDS011;60886;55.034;73.150;2023-03-23T10:49:45;2.08;;;0.60;;
72761;SDS011;60886;55.034;73.150;2023-03-23T10:52:54;1.87;;;0.50;;
72761;SDS011;60886;55.034;73.150;2023-03-23T10:55:59;2.45;;;0.60;;
72761;SDS011;60886;55.034;73.150;2023-03-23T10:59:25;2.00;;;0.50;;
72761;SDS011;60886;55.034;73.150;2023-03-23T11:02:29;2.90;;;0.70;;
72761;SDS011;60886;55.034;73.150;2023-03-23T11:05:49;3.37;;;0.80;;
72761;SDS011;60886;55.034;73.150;2023-03-23T11:08:55;3.47;;;0.60;;
72761;SDS011;60886;55.034;73.150;2023-03-23T11:11:59;1.90;;;0.55;;
72761;SDS011;60886;55.034;73.150;2023-03-23T11:15:15;2.03;;;0.50;;
72761;SDS011;60886;55.034;73.150;2023-03-23T11:18:25;2.10;;;0.60;;
72761;SDS011;60886;55.034;73.150;2023-03-23T11:21:39;1.58;;;0.45;;
72761;SDS011;60886;55.034;73.150;2023-03-23T11:24:47;2.30;;;0.50;;
72761;SDS011;60886;55.034;73.150;2023-03-23T11:27:53;3.33;;;0.50;;
72761;SDS011;60886;55.034;73.150;2023-03-23T11:31:03;1.63;;;0.55;;
72761;SDS011;60886;55.034;73.150;2023-03-23T11:34:10;2.23;;;0.53;;
72761;SDS011;60886;55.034;73.150;2023-03-23T11:37:44;2.70;;;0.60;;
72761;SDS011;60886;55.034;73.150;2023-03-23T11:40:50;0.98;;;0.40;;
72761;SDS011;60886;55.034;73.150;2023-03-23T11:43:53;3.00;;;0.68;;
72761;SDS011;60886;55.034;73.150;2023-03-23T11:46:58;2.80;;;0.67;;
72761;SDS011;60886;55.034;73.150;2023-03-23T11:50:20;3.40;;;0.75;;
72761;SDS011;60886;55.034;73.150;2023-03-23T11:56:56;1.73;;;0.50;;
72761;SDS011;60886;55.034;73.150;2023-03-23T11:59:58;3.92;;;0.70;;
72761;SDS011;60886;55.034;73.150;2023-03-23T12:03:04;4.50;;;0.70;;
72761;SDS011;60886;55.034;73.150;2023-03-23T12:06:13;4.47;;;1.00;;
72761;SDS011;60886;55.034;73.150;2023-03-23T12:12:46;4.77;;;0.97;;
72761;SDS011;60886;55.034;73.150;2023-03-23T12:19:27;3.37;;;0.70;;
72761;SDS011;60886;55.034;73.150;2023-03-23T12:26:15;4.57;;;0.90;;
72761;SDS011;60886;55.034;73.150;2023-03-23T12:32:44;3.47;;;0.70;;
72761;SDS011;60886;55.034;73.150;2023-03-23T12:36:17;3.55;;;0.70;;
72761;SDS011;60886;55.034;73.150;2023-03-23T12:46:00;3.70;;;0.80;;
72761;SDS011;60886;55.034;73.150;2023-03-23T12:49:22;3.92;;;0.80;;
72761;SDS011;60886;55.034;73.150;2023-03-23T12:52:27;2.63;;;0.60;;
72761;SDS011;60886;55.034;73.150;2023-03-23T12:58:53;4.07;;;0.90;;
72761;SDS011;60886;55.034;73.150;2023-03-23T13:02:01;8.85;;;2.45;;
72761;SDS011;60886;55.034;73.150;2023-03-23T13:08:29;6.15;;;1.85;;
72761;SDS011;60886;55.034;73.150;2023-03-23T13:11:37;5.13;;;1.42;;
72761;SDS011;60886;55.034;73.150;2023-03-23T13:18:19;5.70;;;1.67;;
72761;SDS011;60886;55.034;73.150;2023-03-23T13:21:47;4.35;;;1.10;;
72761;SDS011;60886;55.034;73.150;2023-03-23T13:25:01;4.88;;;1.00;;
72761;SDS011;60886;55.034;73.150;2023-03-23T13:28:12;4.50;;;1.17;;
72761;SDS011;60886;55.034;73.150;2023-03-23T13:31:17;6.28;;;1.17;;
72761;SDS011;60886;55.034;73.150;2023-03-23T13:34:29;7.10;;;1.43;;
72761;SDS011;60886;55.034;73.150;2023-03-23T13:37:32;5.43;;;1.40;;
72761;SDS011;60886;55.034;73.150;2023-03-23T13:40:33;5.93;;;1.70;;
72761;SDS011;60886;55.034;73.150;2023-03-23T13:43:42;4.82;;;1.30;;
72761;SDS011;60886;55.034;73.150;2023-03-23T13:47:21;4.80;;;1.30;;
72761;SDS011;60886;55.034;73.150;2023-03-23T13:50:28;6.15;;;1.15;;
72761;SDS011;60886;55.034;73.150;2023-03-23T13:53:42;4.70;;;1.20;;
72761;SDS011;60886;55.034;73.150;2023-03-23T13:56:55;5.22;;;1.30;;
72761;SDS011;60886;55.034;73.150;2023-03-23T13:59:59;5.50;;;1.30;;
72761;SDS011;60886;55.034;73.150;2023-03-23T14:03:31;5.10;;;1.13;;
72761;SDS011;60886;55.034;73.150;2023-03-23T14:06:37;4.10;;;1.00;;
72761;SDS011;60886;55.034;73.150;2023-03-23T14:09:42;5.85;;;1.60;;
72761;SDS011;60886;55.034;73.150;2023-03-23T14:12:52;5.15;;;1.20;;
72761;SDS011;60886;55.034;73.150;2023-03-23T14:15:59;4.93;;;1.20;;
72761;SDS011;60886;55.034;73.150;2023-03-23T14:22:23;7.00;;;1.60;;
72761;SDS011;60886;55.034;73.150;2023-03-23T14:25:32;5.73;;;1.90;;
72761;SDS011;60886;55.034;73.150;2023-03-23T14:28:41;6.10;;;1.80;;
72761;SDS011;60886;55.034;73.150;2023-03-23T14:31:44;6.23;;;1.60;;
72761;SDS011;60886;55.034;73.150;2023-03-23T14:34:53;6.97;;;1.52;;
72761;SDS011;60886;55.034;73.150;2023-03-23T14:37:55;5.20;;;1.30;;
72761;SDS011;60886;55.034;73.150;2023-03-23T14:41:10;4.85;;;1.30;;
72761;SDS011;60886;55.034;73.150;2023-03-23T14:44:18;5.63;;;1.70;;
72761;SDS011;60886;55.034;73.150;2023-03-23T14:47:29;5.10;;;1.50;;
72761;SDS011;60886;55.034;73.150;2023-03-23T14:50:38;5.20;;;1.60;;
72761;SDS011;60886;55.034;73.150;2023-03-23T14:53:40;5.18;;;1.50;;
72761;SDS011;60886;55.034;73.150;2023-03-23T14:56:43;5.83;;;1.70;;
72761;SDS011;60886;55.034;73.150;2023-03-23T14:59:45;6.32;;;1.90;;
72761;SDS011;60886;55.034;73.150;2023-03-23T15:02:58;7.57;;;1.80;;
72761;SDS011;60886;55.034;73.150;2023-03-23T15:06:05;6.07;;;1.92;;
72761;SDS011;60886;55.034;73.150;2023-03-23T15:09:14;6.28;;;2.10;;
72761;SDS011;60886;55.034;73.150;2023-03-23T15:12:26;8.13;;;2.97;;
72761;SDS011;60886;55.034;73.150;2023-03-23T15:15:35;7.10;;;2.50;;
72761;SDS011;60886;55.034;73.150;2023-03-23T15:18:37;8.32;;;2.85;;
72761;SDS011;60886;55.034;73.150;2023-03-23T15:21:49;7.57;;;2.63;;
72761;SDS011;60886;55.034;73.150;2023-03-23T15:25:03;8.65;;;2.58;;
72761;SDS011;60886;55.034;73.150;2023-03-23T15:28:20;9.27;;;3.17;;
72761;SDS011;60886;55.034;73.150;2023-03-23T15:31:38;10.07;;;3.53;;
72761;SDS011;60886;55.034;73.150;2023-03-23T15:34:41;8.57;;;3.15;;
72761;SDS011;60886;55.034;73.150;2023-03-23T15:37:46;8.90;;;2.80;;
72761;SDS011;60886;55.034;73.150;2023-03-23T15:40:51;8.02;;;2.90;;
72761;SDS011;60886;55.034;73.150;2023-03-23T15:44:20;6.93;;;2.28;;
72761;SDS011;60886;55.034;73.150;2023-03-23T15:47:33;8.02;;;2.40;;
72761;SDS011;60886;55.034;73.150;2023-03-23T15:50:55;6.32;;;2.20;;
72761;SDS011;60886;55.034;73.150;2023-03-23T15:53:57;7.93;;;2.20;;
72761;SDS011;60886;55.034;73.150;2023-03-23T15:56:59;6.03;;;1.60;;
72761;SDS011;60886;55.034;73.150;2023-03-23T16:00:01;6.25;;;1.50;;
72761;SDS011;60886;55.034;73.150;2023-03-23T16:03:14;5.47;;;1.40;;
72761;SDS011;60886;55.034;73.150;2023-03-23T16:06:22;5.40;;;1.20;;
72761;SDS011;60886;55.034;73.150;2023-03-23T16:09:25;6.07;;;1.30;;
72761;SDS011;60886;55.034;73.150;2023-03-23T16:12:27;4.87;;;1.20;;
72761;SDS011;60886;55.034;73.150;2023-03-23T16:15:28;4.50;;;1.17;;
72761;SDS011;60886;55.034;73.150;2023-03-23T16:18:30;5.70;;;1.30;;
72761;SDS011;60886;55.034;73.150;2023-03-23T16:21:31;4.83;;;1.50;;
72761;SDS011;60886;55.034;73.150;2023-03-23T16:24:33;7.20;;;2.20;;
72761;SDS011;60886;55.034;73.150;2023-03-23T16:27:35;7.70;;;2.40;;
72761;SDS011;60886;55.034;73.150;2023-03-23T16:30:36;6.85;;;2.10;;
72761;SDS011;60886;55.034;73.150;2023-03-23T16:33:38;6.47;;;2.03;;
72761;SDS011;60886;55.034;73.150;2023-03-23T16:36:39;6.80;;;2.17;;
72761;SDS011;60886;55.034;73.150;2023-03-23T16:39:41;6.30;;;1.97;;
72761;SDS011;60886;55.034;73.150;2023-03-23T16:42:42;5.57;;;1.97;;
72761;SDS011;60886;55.034;73.150;2023-03-23T16:45:44;6.95;;;1.75;;
72761;SDS011;60886;55.034;73.150;2023-03-23T16:48:47;6.07;;;1.45;;
72761;SDS011;60886;55.034;73.150;2023-03-23T16:51:48;5.90;;;1.50;;
72761;SDS011;60886;55.034;73.150;2023-03-23T16:54:51;5.27;;;1.40;;
72761;SDS011;60886;55.034;73.150;2023-03-23T16:57:53;5.47;;;1.40;;
72761;SDS011;60886;55.034;73.150;2023-03-23T17:00:55;5.43;;;1.38;;
72761;SDS011;60886;55.034;73.150;2023-03-23T17:04:06;6.20;;;1.53;;
72761;SDS011;60886;55.034;73.150;2023-03-23T17:07:13;5.53;;;1.40;;
72761;SDS011;60886;55.034;73.150;2023-03-23T17:10:15;4.93;;;1.25;;
72761;SDS011;60886;55.034;73.150;2023-03-23T17:13:17;5.35;;;1.40;;
72761;SDS011;60886;55.034;73.150;2023-03-23T17:16:18;6.43;;;1.63;;
72761;SDS011;60886;55.034;73.150;2023-03-23T17:19:21;7.55;;;1.90;;
72761;SDS011;60886;55.034;73.150;2023-03-23T17:22:23;6.63;;;1.70;;
72761;SDS011;60886;55.034;73.150;2023-03-23T17:25:35;7.73;;;2.10;;
72761;SDS011;60886;55.034;73.150;2023-03-23T17:28:36;9.43;;;2.35;;
72761;SDS011;60886;55.034;73.150;2023-03-23T17:31:38;10.05;;;2.55;;
72761;SDS011;60886;55.034;73.150;2023-03-23T17:34:41;9.47;;;2.60;;
72761;SDS011;60886;55.034;73.150;2023-03-23T17:37:43;7.30;;;2.47;;
72761;SDS011;60886;55.034;73.150;2023-03-23T17:40:44;6.93;;;1.97;;
72761;SDS011;60886;55.034;73.150;2023-03-23T17:43:50;6.87;;;2.10;;
72761;SDS011;60886;55.034;73.150;2023-03-23T17:46:51;6.40;;;2.27;;
72761;SDS011;60886;55.034;73.150;2023-03-23T17:49:56;7.18;;;2.08;;
72761;SDS011;60886;55.034;73.150;2023-03-23T17:52:57;6.38;;;1.95;;
72761;SDS011;60886;55.034;73.150;2023-03-23T17:56:01;9.00;;;2.37;;
72761;SDS011;60886;55.034;73.150;2023-03-23T17:59:09;8.90;;;2.58;;
72761;SDS011;60886;55.034;73.150;2023-03-23T18:02:11;10.75;;;3.22;;
72761;SDS011;60886;55.034;73.150;2023-03-23T18:05:13;14.77;;;3.37;;
72761;SDS011;60886;55.034;73.150;2023-03-23T18:08:17;11.77;;;3.47;;
72761;SDS011;60886;55.034;73.150;2023-03-23T18:11:24;9.98;;;2.97;;
72761;SDS011;60886;55.034;73.150;2023-03-23T18:14:31;8.90;;;2.20;;
72761;SDS011;60886;55.034;73.150;2023-03-23T18:17:32;8.67;;;2.40;;
72761;SDS011;60886;55.034;73.150;2023-03-23T18:20:34;6.25;;;1.60;;
72761;SDS011;60886;55.034;73.150;2023-03-23T18:23:36;7.03;;;1.50;;
72761;SDS011;60886;55.034;73.150;2023-03-23T18:26:38;9.17;;;1.60;;
72761;SDS011;60886;55.034;73.150;2023-03-23T18:29:45;8.65;;;1.95;;
72761;SDS011;60886;55.034;73.150;2023-03-23T18:32:47;10.35;;;2.50;;
72761;SDS011;60886;55.034;73.150;2023-03-23T18:35:54;8.80;;;2.23;;
72761;SDS011;60886;55.034;73.150;2023-03-23T18:38:58;6.93;;;1.67;;
72761;SDS011;60886;55.034;73.150;2023-03-23T18:41:59;6.32;;;1.45;;
72761;SDS011;60886;55.034;73.150;2023-03-23T18:45:11;6.08;;;1.88;;
72761;SDS011;60886;55.034;73.150;2023-03-23T18:48:13;6.47;;;2.00;;
72761;SDS011;60886;55.034;73.150;2023-03-23T18:51:15;7.87;;;2.70;;
72761;SDS011;60886;55.034;73.150;2023-03-23T18:54:16;7.10;;;2.35;;
72761;SDS011;60886;55.034;73.150;2023-03-23T18:57:18;7.68;;;2.35;;
72761;SDS011;60886;55.034;73.150;2023-03-23T19:00:22;8.75;;;2.38;;
72761;SDS011;60886;55.034;73.150;2023-03-23T19:03:23;7.68;;;2.10;;
72761;SDS011;60886;55.034;73.150;2023-03-23T19:06:25;10.48;;;2.28;;
72761;SDS011;60886;55.034;73.150;2023-03-23T19:09:27;7.68;;;2.50;;
72761;SDS011;60886;55.034;73.150;2023-03-23T19:12:29;6.67;;;1.80;;
72761;SDS011;60886;55.034;73.150;2023-03-23T19:15:31;6.57;;;1.80;;
72761;SDS011;60886;55.034;73.150;2023-03-23T19:18:33;7.82;;;1.70;;
72761;SDS011;60886;55.034;73.150;2023-03-23T19:21:35;9.63;;;2.10;;
72761;SDS011;60886;55.034;73.150;2023-03-23T19:24:37;7.38;;;2.10;;
72761;SDS011;60886;55.034;73.150;2023-03-23T19:27:38;6.97;;;2.00;;
72761;SDS011;60886;55.034;73.150;2023-03-23T19:30:46;6.45;;;1.88;;
72761;SDS011;60886;55.034;73.150;2023-03-23T19:33:53;7.03;;;1.70;;
72761;SDS011;60886;55.034;73.150;2023-03-23T19:36:55;8.05;;;2.20;;
72761;SDS011;60886;55.034;73.150;2023-03-23T19:39:57;5.97;;;1.92;;
72761;SDS011;60886;55.034;73.150;2023-03-23T19:42:58;7.47;;;1.87;;
72761;SDS011;60886;55.034;73.150;2023-03-23T19:46:04;7.67;;;1.93;;
72761;SDS011;60886;55.034;73.150;2023-03-23T19:49:05;6.82;;;2.10;;
72761;SDS011;60886;55.034;73.150;2023-03-23T19:52:07;7.53;;;2.10;;
72761;SDS011;60886;55.034;73.150;2023-03-23T19:55:11;6.97;;;2.30;;
72761;SDS011;60886;55.034;73.150;2023-03-23T19:58:13;7.85;;;2.15;;
72761;SDS011;60886;55.034;73.150;2023-03-23T20:01:14;9.30;;;2.47;;
72761;SDS011;60886;55.034;73.150;2023-03-23T20:04:17;9.43;;;2.33;;
72761;SDS011;60886;55.034;73.150;2023-03-23T20:07:20;9.33;;;2.30;;